Time;durP1;ratioP1;P1;durP2;ratioP2;P2;SDS_P1;SDS_P2;PMS_P1;PMS_P2;Temp;Humidity;BMP_temperature;BMP_pressure;BME280_temperature;BME280_humidity;BME280_pressure;Samples;Min_cycle;Max_cycle;Signal;HPM_P1;HPM_P2
2022/08/27 00:00:21;;;;;;;38.70;33.50;;;18.60;99.90;;;;;;5001223;28;20489;-68
2022/08/27 00:02:48;;;;;;;38.13;33.80;;;18.70;99.90;;;;;;5013537;28;21014;-68
2022/08/27 00:05:17;;;;;;;41.73;34.57;;;18.70;99.90;;;;;;5017857;28;20464;-68
2022/08/27 00:07:44;;;;;;;40.97;34.00;;;18.70;99.90;;;;;;5022031;28;20982;-68
2022/08/27 00:10:15;;;;;;;48.53;36.83;;;18.70;99.90;;;;;;5019980;28;20751;-67
2022/08/27 00:12:43;;;;;;;43.17;35.80;;;18.80;99.90;;;;;;5021612;28;20441;-67
2022/08/27 00:15:11;;;;;;;48.70;38.70;;;18.80;99.90;;;;;;5019396;28;20942;-67
2022/08/27 00:17:39;;;;;;;50.77;41.73;;;18.80;99.90;;;;;;5021635;28;20901;-67
2022/08/27 00:20:07;;;;;;;48.13;37.53;;;18.80;99.90;;;;;;5020616;28;20445;-68
2022/08/27 00:22:34;;;;;;;46.20;40.97;;;18.80;99.90;;;;;;5016501;28;20469;-68
2022/08/27 00:25:01;;;;;;;45.63;37.27;;;18.90;99.90;;;;;;5007092;28;20441;-68
2022/08/27 00:27:28;;;;;;;46.83;37.70;;;18.90;99.90;;;;;;5015129;28;20842;-69
2022/08/27 00:29:56;;;;;;;45.60;36.80;;;18.90;99.90;;;;;;5024320;28;20457;-67
2022/08/27 00:32:23;;;;;;;43.27;38.53;;;18.90;99.90;;;;;;5028015;28;20847;-67
2022/08/27 00:34:50;;;;;;;43.60;38.80;;;18.90;99.90;;;;;;5026714;28;20433;-67
2022/08/27 00:37:17;;;;;;;45.07;36.50;;;18.90;99.90;;;;;;5028534;28;20571;-67
2022/08/27 00:39:44;;;;;;;40.23;35.07;;;18.90;99.90;;;;;;5029503;28;20582;-68
2022/08/27 00:42:11;;;;;;;44.13;36.73;;;18.90;99.90;;;;;;5029538;28;20449;-69
2022/08/27 00:44:38;;;;;;;45.37;37.10;;;18.90;99.90;;;;;;5028191;28;20456;-68
2022/08/27 00:47:10;;;;;;;40.13;35.90;;;18.90;99.90;;;;;;5029688;28;20433;-67
2022/08/27 00:49:42;;;;;;;39.40;35.20;;;18.90;99.90;;;;;;5029572;28;20836;-69
2022/08/27 00:52:17;;;;;;;42.17;34.83;;;18.90;99.90;;;;;;5029338;28;20440;-69
2022/08/27 00:54:44;;;;;;;44.63;37.20;;;18.80;99.90;;;;;;5027964;28;20452;-69
2022/08/27 00:57:11;;;;;;;42.40;37.10;;;18.90;99.90;;;;;;5028854;28;20481;-69
2022/08/27 00:59:39;;;;;;;44.27;37.60;;;18.80;99.90;;;;;;5029239;28;21045;-68
2022/08/27 01:02:19;;;;;;;42.70;37.13;;;18.80;99.90;;;;;;5029495;28;20456;-67
2022/08/27 01:04:51;;;;;;;42.40;36.27;;;18.80;99.90;;;;;;5030137;28;20827;-68
2022/08/27 01:07:18;;;;;;;43.30;38.63;;;18.90;99.90;;;;;;5033336;28;20552;-68
2022/08/27 01:09:47;;;;;;;44.23;38.60;;;18.90;99.90;;;;;;5034459;28;20893;-68
2022/08/27 01:12:14;;;;;;;42.63;36.40;;;18.90;99.90;;;;;;5033589;28;20449;-68
2022/08/27 01:14:43;;;;;;;42.40;37.90;;;18.90;99.90;;;;;;5032002;28;20449;-67
2022/08/27 01:17:12;;;;;;;45.13;40.10;;;18.90;99.90;;;;;;5032976;28;20626;-69
2022/08/27 01:19:43;;;;;;;43.17;38.53;;;18.90;99.90;;;;;;5032958;28;20452;-68
2022/08/27 01:22:18;;;;;;;48.07;39.47;;;18.90;99.90;;;;;;5032849;28;20453;-68
2022/08/27 01:24:49;;;;;;;46.63;40.50;;;19.00;99.90;;;;;;5031903;28;20455;-69
2022/08/27 01:27:20;;;;;;;47.50;42.20;;;19.00;99.90;;;;;;5032826;28;20487;-68
2022/08/27 01:29:48;;;;;;;46.60;40.80;;;18.90;99.90;;;;;;5032633;28;20461;-68
2022/08/27 01:32:17;;;;;;;49.00;41.87;;;18.90;99.90;;;;;;5032562;28;20449;-68
2022/08/27 01:34:45;;;;;;;49.67;43.07;;;18.90;99.90;;;;;;5031358;28;21255;-68
2022/08/27 01:37:13;;;;;;;57.13;44.80;;;18.90;99.90;;;;;;5032468;28;20489;-68
2022/08/27 01:39:41;;;;;;;51.00;44.10;;;18.90;99.90;;;;;;5032647;28;20455;-69
2022/08/27 01:42:14;;;;;;;52.60;45.30;;;18.90;99.90;;;;;;5032498;28;20445;-69
2022/08/27 01:44:47;;;;;;;56.33;46.03;;;18.90;99.90;;;;;;5031407;28;20511;-67
2022/08/27 01:47:14;;;;;;;52.80;45.80;;;18.90;99.90;;;;;;5032216;28;20483;-69
2022/08/27 01:49:41;;;;;;;51.93;45.00;;;18.80;99.90;;;;;;5032509;28;20476;-69
2022/08/27 01:52:08;;;;;;;55.80;44.80;;;18.90;99.90;;;;;;5032287;28;20483;-68
2022/08/27 01:54:35;;;;;;;50.43;45.07;;;18.90;99.90;;;;;;5031548;28;20452;-67
2022/08/27 01:57:02;;;;;;;51.97;43.37;;;18.90;99.90;;;;;;5032323;28;20477;-68
2022/08/27 01:59:30;;;;;;;48.77;43.53;;;18.90;99.90;;;;;;5032512;28;20452;-69
2022/08/27 02:01:57;;;;;;;48.47;43.27;;;18.90;99.90;;;;;;5032467;28;20532;-68
2022/08/27 02:04:24;;;;;;;52.70;42.37;;;18.90;99.90;;;;;;5031735;28;21138;-66
2022/08/27 02:06:51;;;;;;;51.13;44.17;;;18.90;99.90;;;;;;5031657;28;20437;-67
2022/08/27 02:09:18;;;;;;;51.80;44.13;;;18.90;99.90;;;;;;5032160;28;20448;-68
2022/08/27 02:11:45;;;;;;;43.70;38.97;;;18.90;99.90;;;;;;5031998;28;20445;-68
2022/08/27 02:14:12;;;;;;;46.53;41.43;;;18.90;99.90;;;;;;5031711;28;20455;-69
2022/08/27 02:16:40;;;;;;;46.83;40.80;;;18.90;99.90;;;;;;5030554;28;20479;-69
2022/08/27 02:19:07;;;;;;;43.70;39.10;;;18.90;99.90;;;;;;5031818;28;20468;-68
2022/08/27 02:21:34;;;;;;;43.37;38.67;;;19.00;99.90;;;;;;5031839;28;20452;-68
2022/08/27 02:24:02;;;;;;;45.17;39.80;;;19.00;99.90;;;;;;5031713;28;20440;-69
2022/08/27 02:26:28;;;;;;;44.10;38.60;;;18.90;99.90;;;;;;5030472;28;20441;-69
2022/08/27 02:28:55;;;;;;;47.10;42.00;;;19.00;99.90;;;;;;5031579;28;20487;-69
2022/08/27 02:31:22;;;;;;;44.07;39.33;;;18.90;99.90;;;;;;5031901;28;20535;-68
2022/08/27 02:33:51;;;;;;;45.83;40.93;;;19.00;99.90;;;;;;5031410;28;20445;-69
2022/08/27 02:36:18;;;;;;;50.53;41.63;;;19.00;99.90;;;;;;5030344;28;20467;-68
2022/08/27 02:38:45;;;;;;;49.37;41.97;;;19.10;99.90;;;;;;5031328;28;20520;-68
2022/08/27 02:41:13;;;;;;;49.23;43.93;;;19.10;99.90;;;;;;5031263;28;20955;-68
2022/08/27 02:43:40;;;;;;;49.30;40.50;;;19.10;99.90;;;;;;5031472;28;20457;-68
2022/08/27 02:46:06;;;;;;;47.63;41.60;;;19.10;99.90;;;;;;5030304;28;20532;-69
2022/08/27 02:48:36;;;;;;;48.83;40.90;;;19.00;99.90;;;;;;5031401;28;20457;-69
2022/08/27 02:51:05;;;;;;;45.90;40.77;;;19.10;99.90;;;;;;5031163;28;20465;-68
2022/08/27 02:53:32;;;;;;;45.10;40.00;;;19.00;99.90;;;;;;5031251;28;20473;-68
2022/08/27 02:55:59;;;;;;;45.83;39.33;;;19.00;99.90;;;;;;5029938;28;20456;-69
2022/08/27 02:58:26;;;;;;;51.30;43.30;;;19.00;99.90;;;;;;5055313;22;20476;-69
2022/08/27 03:00:53;;;;;;;49.50;42.77;;;19.00;99.90;;;;;;5051996;28;20445;-70
2022/08/27 03:03:20;;;;;;;47.83;41.97;;;18.90;99.90;;;;;;5052373;28;20471;-68
2022/08/27 03:05:47;;;;;;;51.67;43.20;;;18.90;99.90;;;;;;5051803;28;20536;-70
2022/08/27 03:08:15;;;;;;;49.63;40.40;;;18.90;99.90;;;;;;5052285;28;20467;-72
2022/08/27 03:10:42;;;;;;;49.90;41.20;;;18.80;99.90;;;;;;5052549;28;20443;-71
2022/08/27 03:13:09;;;;;;;48.10;42.13;;;18.90;99.90;;;;;;5053010;28;21012;-71
2022/08/27 03:15:36;;;;;;;48.47;40.87;;;18.90;99.90;;;;;;5052190;28;20530;-71
2022/08/27 03:18:18;;;;;;;51.90;42.40;;;18.80;99.90;;;;;;5051832;28;20507;-69
2022/08/27 03:20:47;;;;;;;48.53;39.77;;;18.80;99.90;;;;;;5051806;28;20835;-70
2022/08/27 03:23:17;;;;;;;49.60;41.37;;;18.80;99.90;;;;;;5051842;28;20674;-70
2022/08/27 03:25:46;;;;;;;46.50;40.70;;;18.70;99.90;;;;;;5051497;28;20444;-70
2022/08/27 03:28:14;;;;;;;45.60;36.80;;;18.70;99.90;;;;;;5051325;28;20444;-69
2022/08/27 03:30:44;;;;;;;41.50;34.60;;;18.60;99.90;;;;;;5051869;28;20447;-69
2022/08/27 03:33:12;;;;;;;46.27;36.90;;;18.50;99.90;;;;;;5052256;28;20448;-70
2022/08/27 03:35:39;;;;;;;38.13;33.73;;;18.50;99.90;;;;;;5051771;28;20446;-70
2022/08/27 03:38:06;;;;;;;40.97;36.00;;;18.50;99.90;;;;;;5051511;28;20574;-70
2022/08/27 03:40:34;;;;;;;38.37;34.10;;;18.50;99.90;;;;;;5052321;28;20987;-71
2022/08/27 03:43:01;;;;;;;46.57;35.17;;;18.50;99.90;;;;;;5051299;28;20543;-71
2022/08/27 03:45:28;;;;;;;39.60;34.83;;;18.50;99.90;;;;;;5051743;28;20530;-71
2022/08/27 03:47:54;;;;;;;36.33;32.30;;;18.50;99.90;;;;;;5053019;28;20551;-70
2022/08/27 03:50:21;;;;;;;42.07;32.13;;;18.50;99.90;;;;;;5053302;28;20468;-70
2022/08/27 03:52:48;;;;;;;36.40;32.50;;;18.50;99.90;;;;;;5052023;28;20940;-69
2022/08/27 03:55:15;;;;;;;40.90;32.63;;;18.40;99.90;;;;;;5051356;28;20904;-70
2022/08/27 03:57:44;;;;;;;36.17;32.30;;;18.40;99.90;;;;;;5051665;28;20480;-71
2022/08/27 04:00:13;;;;;;;36.83;31.50;;;18.40;99.90;;;;;;5051626;28;20468;-70
2022/08/27 04:02:41;;;;;;;40.10;32.60;;;18.40;99.90;;;;;;5050647;28;21071;-69
2022/08/27 04:05:09;;;;;;;40.93;32.37;;;18.40;99.90;;;;;;5050223;28;20534;-70
2022/08/27 04:07:37;;;;;;;41.10;32.77;;;18.40;99.90;;;;;;5050105;28;20436;-70
2022/08/27 04:10:04;;;;;;;41.63;34.40;;;18.40;99.90;;;;;;5050008;28;20463;-69
2022/08/27 04:12:31;;;;;;;42.90;34.00;;;18.40;99.90;;;;;;5049994;28;20534;-69
2022/08/27 04:14:59;;;;;;;46.50;37.13;;;18.30;99.90;;;;;;5049776;28;20880;-69
2022/08/27 04:17:26;;;;;;;51.47;41.03;;;18.30;99.90;;;;;;5050099;28;20844;-70
2022/08/27 04:19:53;;;;;;;48.47;38.30;;;18.30;99.90;;;;;;5049890;28;20475;-70
2022/08/27 04:22:22;;;;;;;52.00;39.47;;;18.30;99.90;;;;;;5049970;28;20905;-70
2022/08/27 04:24:49;;;;;;;49.53;38.87;;;18.40;99.90;;;;;;5049649;28;20456;-70
2022/08/27 04:27:16;;;;;;;46.97;36.30;;;18.30;99.90;;;;;;5049803;28;20440;-70
2022/08/27 04:29:43;;;;;;;46.50;37.00;;;18.40;99.90;;;;;;5049662;28;20472;-70
2022/08/27 04:32:11;;;;;;;52.00;41.97;;;18.40;99.90;;;;;;5049805;28;20463;-70
2022/08/27 04:34:39;;;;;;;51.63;40.67;;;18.50;99.90;;;;;;5049514;28;20447;-69
2022/08/27 04:37:06;;;;;;;53.13;41.00;;;18.50;99.90;;;;;;5049721;28;20439;-70
2022/08/27 04:39:33;;;;;;;51.47;40.17;;;18.50;99.90;;;;;;5053093;28;20548;-70
2022/08/27 04:42:00;;;;;;;57.53;43.70;;;18.50;99.90;;;;;;5053999;28;20444;-70
2022/08/27 04:44:29;;;;;;;52.07;41.97;;;18.50;99.90;;;;;;5054031;28;20465;-70
2022/08/27 04:46:57;;;;;;;49.43;40.30;;;18.50;99.90;;;;;;5054009;28;20820;-70
2022/08/27 04:49:26;;;;;;;52.33;42.80;;;18.60;99.90;;;;;;5053944;28;20456;-70
2022/08/27 04:51:54;;;;;;;53.50;42.53;;;18.60;99.90;;;;;;5053986;28;20459;-70
2022/08/27 04:54:22;;;;;;;62.77;47.27;;;18.60;99.90;;;;;;5053938;28;20444;-69
2022/08/27 04:56:49;;;;;;;57.40;44.27;;;18.60;99.90;;;;;;5053724;28;20448;-69
2022/08/27 04:59:16;;;;;;;54.73;45.63;;;18.60;99.90;;;;;;5053500;28;20515;-70
2022/08/27 05:01:43;;;;;;;55.90;45.03;;;18.60;99.90;;;;;;5053618;28;20454;-70
2022/08/27 05:04:13;;;;;;;54.60;43.90;;;18.70;99.90;;;;;;5053450;28;20479;-71
2022/08/27 05:06:44;;;;;;;62.63;46.13;;;18.70;99.90;;;;;;5053137;28;20439;-71
2022/08/27 05:09:11;;;;;;;53.37;43.90;;;18.70;99.90;;;;;;5053555;28;20558;-70
2022/08/27 05:11:38;;;;;;;53.13;44.57;;;18.80;99.90;;;;;;5053307;28;20534;-70
2022/08/27 05:14:07;;;;;;;54.63;44.83;;;18.80;99.90;;;;;;5053300;28;20448;-70
2022/08/27 05:16:35;;;;;;;53.70;43.63;;;18.80;99.90;;;;;;5052789;28;20443;-71
2022/08/27 05:19:02;;;;;;;51.67;43.83;;;18.80;99.90;;;;;;5053044;28;20484;-70
2022/08/27 05:21:31;;;;;;;48.10;41.33;;;18.90;99.90;;;;;;5053018;28;20456;-70
2022/08/27 05:24:01;;;;;;;47.77;41.20;;;18.90;99.90;;;;;;5053114;28;20448;-70
2022/08/27 05:26:29;;;;;;;50.90;43.57;;;19.00;99.90;;;;;;5052663;28;20443;-69
2022/08/27 05:28:59;;;;;;;56.60;44.40;;;19.00;99.90;;;;;;5052892;28;20456;-70
2022/08/27 05:31:26;;;;;;;50.47;42.20;;;19.00;99.90;;;;;;5052951;28;20455;-70
2022/08/27 05:33:55;;;;;;;44.63;39.53;;;19.00;99.90;;;;;;5052777;28;20517;-70
2022/08/27 05:36:25;;;;;;;42.50;37.90;;;19.00;99.90;;;;;;5052729;28;20454;-70
2022/08/27 05:38:53;;;;;;;50.97;42.00;;;19.10;99.90;;;;;;5052686;28;20592;-70
2022/08/27 05:41:26;;;;;;;50.73;41.43;;;19.10;99.90;;;;;;5052633;28;20443;-70
2022/08/27 05:43:54;;;;;;;53.13;42.80;;;19.10;99.90;;;;;;5052638;28;20556;-70
2022/08/27 05:46:23;;;;;;;48.27;40.70;;;19.10;99.90;;;;;;5052209;28;20531;-69
2022/08/27 05:48:51;;;;;;;53.20;41.87;;;19.10;99.90;;;;;;5052634;28;20464;-70
2022/08/27 05:51:21;;;;;;;47.67;42.30;;;19.10;99.90;;;;;;5051956;28;20458;-70
2022/08/27 05:53:48;;;;;;;44.90;40.07;;;19.20;99.90;;;;;;5052743;28;20451;-70
2022/08/27 05:56:17;;;;;;;51.70;42.43;;;19.20;99.90;;;;;;5052526;28;20444;-70
2022/08/27 06:01:32;;;;;;;47.03;38.30;;;19.40;99.90;;;;;;5052453;28;20555;-70
2022/08/27 06:03:59;;;;;;;46.00;41.00;;;19.40;99.90;;;;;;5052465;28;20450;-70
2022/08/27 06:06:26;;;;;;;47.80;40.93;;;19.50;99.90;;;;;;5052160;28;20475;-70
2022/08/27 06:08:54;;;;;;;48.47;43.30;;;19.50;99.90;;;;;;5052457;28;20467;-70
2022/08/27 06:11:22;;;;;;;47.87;42.10;;;19.60;99.90;;;;;;5052020;28;20440;-71
2022/08/27 06:13:50;;;;;;;48.50;43.33;;;19.60;99.90;;;;;;5052281;28;20547;-70
2022/08/27 06:16:18;;;;;;;49.80;43.43;;;19.60;99.90;;;;;;5051738;28;20440;-71
2022/08/27 06:18:47;;;;;;;48.90;43.20;;;19.60;99.90;;;;;;5052055;28;20479;-70
2022/08/27 06:21:16;;;;;;;49.67;44.30;;;19.60;99.90;;;;;;5052107;28;20451;-71
2022/08/27 06:23:43;;;;;;;49.67;41.53;;;19.60;99.90;;;;;;5052023;28;20466;-70
2022/08/27 06:26:12;;;;;;;50.17;42.77;;;19.70;99.90;;;;;;5051141;28;20933;-70
2022/08/27 06:28:40;;;;;;;48.87;43.33;;;19.70;99.90;;;;;;5064947;22;20495;-67
2022/08/27 06:31:10;;;;;;;47.20;41.40;;;19.80;99.90;;;;;;5051355;28;21021;-67
2022/08/27 06:33:38;;;;;;;47.03;41.90;;;19.80;99.90;;;;;;5051511;28;20444;-68
2022/08/27 06:36:08;;;;;;;44.87;40.20;;;20.00;99.90;;;;;;5050191;28;20498;-69
2022/08/27 06:38:35;;;;;;;45.47;40.43;;;20.10;99.90;;;;;;5050770;28;20483;-68
2022/08/27 06:41:04;;;;;;;44.37;39.63;;;20.20;99.90;;;;;;5051311;28;20942;-67
2022/08/27 06:43:30;;;;;;;42.80;38.23;;;20.30;99.90;;;;;;5051782;28;20475;-68
2022/08/27 06:45:57;;;;;;;40.40;35.77;;;20.40;99.90;;;;;;5050061;28;20444;-67
2022/08/27 06:48:25;;;;;;;41.90;37.30;;;20.40;99.90;;;;;;5051361;28;20470;-68
2022/08/27 06:50:52;;;;;;;42.33;37.73;;;20.30;99.90;;;;;;5051190;28;20452;-68
2022/08/27 06:53:19;;;;;;;45.53;37.20;;;20.20;99.90;;;;;;5050802;28;20925;-66
2022/08/27 06:55:48;;;;;;;41.13;36.63;;;20.20;99.90;;;;;;5049797;28;20451;-68
2022/08/27 06:58:17;;;;;;;39.30;35.20;;;20.20;99.90;;;;;;5050858;28;20480;-67
2022/08/27 07:00:44;;;;;;;41.57;37.30;;;20.10;99.90;;;;;;5050897;28;20440;-67
2022/08/27 07:03:11;;;;;;;40.70;36.67;;;20.30;99.90;;;;;;5049742;28;20446;-68
2022/08/27 07:05:40;;;;;;;39.20;33.70;;;20.40;99.90;;;;;;5049965;28;20483;-68
2022/08/27 07:08:09;;;;;;;39.47;35.37;;;20.50;99.90;;;;;;5050519;28;20976;-68
2022/08/27 07:10:36;;;;;;;39.67;35.77;;;20.40;99.90;;;;;;5050801;28;20444;-67
2022/08/27 07:13:03;;;;;;;38.67;34.63;;;20.50;99.90;;;;;;5050410;28;20448;-68
2022/08/27 07:15:30;;;;;;;40.77;36.63;;;20.60;99.90;;;;;;5049375;28;20452;-67
2022/08/27 07:17:58;;;;;;;37.97;34.07;;;20.70;99.90;;;;;;5050288;28;20997;-68
2022/08/27 07:20:25;;;;;;;40.17;36.17;;;20.70;99.90;;;;;;5050508;28;20941;-68
2022/08/27 07:22:57;;;;;;;40.03;36.13;;;20.70;99.90;;;;;;5050577;28;20527;-67
2022/08/27 07:25:25;;;;;;;35.67;31.97;;;20.70;99.90;;;;;;5049436;28;20824;-67
2022/08/27 07:27:52;;;;;;;39.27;34.97;;;20.60;99.90;;;;;;5050110;28;20468;-67
2022/08/27 07:30:19;;;;;;;38.97;35.00;;;20.50;99.90;;;;;;5050875;28;21061;-67
2022/08/27 07:32:46;;;;;;;37.80;33.70;;;20.40;99.90;;;;;;5050223;28;20832;-67
2022/08/27 07:35:13;;;;;;;37.67;33.97;;;20.40;99.90;;;;;;5048888;28;20455;-67
2022/08/27 07:37:41;;;;;;;40.13;35.87;;;20.40;99.90;;;;;;5050303;28;20455;-68
2022/08/27 07:40:12;;;;;;;42.03;35.80;;;20.30;99.90;;;;;;5049829;28;21024;-68
2022/08/27 07:45:25;;;;;;;36.20;32.47;;;20.40;99.90;;;;;;5048701;28;20444;-68
2022/08/27 07:47:51;;;;;;;42.03;35.00;;;20.40;99.90;;;;;;5050159;28;20556;-68
2022/08/27 07:50:19;;;;;;;37.70;34.00;;;20.50;99.90;;;;;;5050074;28;20456;-67
2022/08/27 07:52:46;;;;;;;36.40;32.70;;;20.50;99.90;;;;;;5049959;28;21007;-67
2022/08/27 07:55:14;;;;;;;36.90;33.40;;;20.50;99.90;;;;;;5048532;28;20456;-69
2022/08/27 07:57:43;;;;;;;36.47;32.70;;;20.40;99.90;;;;;;5049881;28;20452;-67
2022/08/27 08:00:11;;;;;;;37.67;33.97;;;20.50;99.90;;;;;;5049510;28;20490;-67
2022/08/27 08:02:40;;;;;;;38.37;34.60;;;20.40;99.90;;;;;;5049980;28;20510;-68
2022/08/27 08:05:08;;;;;;;38.83;34.73;;;20.40;99.90;;;;;;5048325;28;20986;-68
2022/08/27 08:07:37;;;;;;;37.83;34.03;;;20.30;99.90;;;;;;5049770;28;20844;-68
2022/08/27 08:10:05;;;;;;;38.73;34.97;;;20.20;99.90;;;;;;5049617;28;20448;-66
2022/08/27 08:12:35;;;;;;;39.70;35.43;;;20.10;99.90;;;;;;5049178;28;20849;-67
2022/08/27 08:15:02;;;;;;;41.07;36.70;;;20.00;99.90;;;;;;5042337;28;20522;-67
2022/08/27 08:17:29;;;;;;;46.17;41.00;;;19.80;99.90;;;;;;5043899;28;20440;-66
2022/08/27 08:19:56;;;;;;;47.90;41.57;;;19.60;99.90;;;;;;5044526;28;20889;-67
2022/08/27 08:22:23;;;;;;;46.27;40.80;;;19.40;99.90;;;;;;5044817;28;20831;-68
2022/08/27 08:24:52;;;;;;;48.87;43.57;;;19.30;99.90;;;;;;5043692;28;20477;-67
2022/08/27 08:27:19;;;;;;;51.77;43.97;;;19.30;99.90;;;;;;5045077;28;20506;-67
2022/08/27 08:29:48;;;;;;;52.03;46.33;;;19.30;99.90;;;;;;5036399;28;20503;-67
2022/08/27 08:32:16;;;;;;;49.87;44.57;;;19.30;99.90;;;;;;5039335;28;20440;-68
2022/08/27 08:34:43;;;;;;;58.50;46.77;;;19.40;99.90;;;;;;5042027;28;20444;-68
2022/08/27 08:37:12;;;;;;;55.77;44.73;;;19.30;99.90;;;;;;5048074;28;20450;-67
2022/08/27 08:39:39;;;;;;;55.97;48.67;;;19.30;99.90;;;;;;5039521;28;20479;-65
2022/08/27 08:42:10;;;;;;;54.77;47.67;;;19.30;99.90;;;;;;5043456;28;20451;-66
2022/08/27 08:44:41;;;;;;;67.73;51.00;;;19.30;99.90;;;;;;5032301;28;20448;-67
2022/08/27 08:47:14;;;;;;;57.23;45.60;;;19.40;99.90;;;;;;5038002;28;20480;-67
2022/08/27 08:49:48;;;;;;;55.83;46.30;;;19.50;99.90;;;;;;5037660;28;20472;-67
2022/08/27 08:52:26;;;;;;;53.13;46.20;;;19.40;99.90;;;;;;5044600;28;20456;-67
2022/08/27 08:54:56;;;;;;;47.67;42.57;;;19.40;99.90;;;;;;5036764;28;20456;-67
2022/08/27 08:57:30;;;;;;;54.50;43.33;;;19.40;99.90;;;;;;5046616;28;20452;-67
2022/08/27 09:00:04;;;;;;;50.13;42.00;;;19.50;99.90;;;;;;5048887;28;20476;-66
2022/08/27 09:02:32;;;;;;;43.93;39.03;;;19.60;99.90;;;;;;5037908;28;20771;-66
2022/08/27 09:05:04;;;;;;;39.30;34.93;;;19.60;99.90;;;;;;5045246;28;20448;-67
2022/08/27 09:07:37;;;;;;;38.93;34.83;;;19.50;99.90;;;;;;5042182;28;20424;-66
2022/08/27 09:10:14;;;;;;;37.93;33.93;;;19.40;99.90;;;;;;5048902;28;20428;-67
2022/08/27 09:12:41;;;;;;;36.73;32.70;;;19.40;99.90;;;;;;5049319;28;20443;-67
2022/08/27 09:15:13;;;;;;;36.67;32.80;;;19.40;99.90;;;;;;5047516;28;20475;-66
2022/08/27 09:17:41;;;;;;;35.87;32.17;;;19.50;99.90;;;;;;5041866;28;20432;-67
2022/08/27 09:20:10;;;;;;;36.10;32.50;;;19.40;99.90;;;;;;5040074;28;21025;-66
2022/08/27 09:22:52;;;;;;;34.77;31.23;;;19.50;99.90;;;;;;5032073;28;20444;-67
2022/08/27 09:25:23;;;;;;;35.37;31.90;;;19.40;99.90;;;;;;5037859;28;21172;-66
2022/08/27 09:27:52;;;;;;;36.03;32.57;;;19.40;99.90;;;;;;5037753;28;20471;-64
2022/08/27 09:30:22;;;;;;;36.07;32.40;;;19.40;99.90;;;;;;5041243;28;20460;-66
2022/08/27 09:32:55;;;;;;;35.90;32.30;;;19.50;99.90;;;;;;5038298;28;20527;-66
2022/08/27 09:35:25;;;;;;;35.80;32.00;;;19.60;99.90;;;;;;5039091;28;20542;-66
2022/08/27 09:37:54;;;;;;;36.83;33.03;;;19.70;99.90;;;;;;5035466;28;20476;-65
2022/08/27 09:40:30;;;;;;;37.20;33.37;;;19.80;99.90;;;;;;5039201;28;20520;-65
2022/08/27 09:43:05;;;;;;;33.53;30.13;;;19.80;99.90;;;;;;5041013;28;20456;-67
2022/08/27 09:45:33;;;;;;;35.17;31.57;;;19.80;99.90;;;;;;5045045;28;20846;-66
2022/08/27 09:48:07;;;;;;;36.63;33.10;;;19.90;99.90;;;;;;5048515;28;20467;-66
2022/08/27 09:50:38;;;;;;;35.17;31.67;;;19.80;99.90;;;;;;5047946;28;20993;-67
2022/08/27 09:53:16;;;;;;;34.73;31.33;;;19.90;99.90;;;;;;5050420;28;20459;-67
2022/08/27 09:55:46;;;;;;;35.90;32.10;;;19.90;99.90;;;;;;5040456;28;20460;-68
2022/08/27 09:58:20;;;;;;;36.60;32.60;;;19.90;99.90;;;;;;5050785;28;20952;-66
2022/08/27 10:00:48;;;;;;;37.80;34.20;;;20.00;99.90;;;;;;5050693;28;20488;-66
2022/08/27 10:03:21;;;;;;;35.67;32.20;;;20.10;99.90;;;;;;5050762;28;20459;-68
2022/08/27 10:05:50;;;;;;;33.70;30.47;;;20.00;99.90;;;;;;5045462;28;20822;-66
2022/08/27 10:08:23;;;;;;;33.83;30.20;;;20.10;99.90;;;;;;5050151;28;20464;-68
2022/08/27 10:10:56;;;;;;;38.33;34.23;;;20.00;99.90;;;;;;5045921;28;20445;-66
2022/08/27 10:13:28;;;;;;;36.57;32.97;;;20.00;99.90;;;;;;5044206;28;20453;-66
2022/08/27 10:16:05;;;;;;;37.93;33.87;;;20.00;99.90;;;;;;5042485;28;20840;-67
2022/08/27 10:18:41;;;;;;;38.77;34.70;;;19.90;99.90;;;;;;5043468;28;20471;-67
2022/08/27 10:21:17;;;;;;;37.33;33.70;;;20.00;99.90;;;;;;5051070;28;20491;-67
2022/08/27 10:23:53;;;;;;;39.73;35.53;;;20.00;99.90;;;;;;5053895;28;20443;-67
2022/08/27 10:26:26;;;;;;;36.27;32.33;;;20.00;99.90;;;;;;5050309;28;20958;-66
2022/08/27 10:29:07;;;;;;;38.47;34.57;;;20.00;99.90;;;;;;5050989;28;20853;-67
2022/08/27 10:31:39;;;;;;;40.43;36.23;;;20.10;99.90;;;;;;5052079;28;20439;-66
2022/08/27 10:34:21;;;;;;;36.57;32.93;;;20.20;99.90;;;;;;5051962;28;20440;-66
2022/08/27 10:36:57;;;;;;;37.10;33.20;;;20.30;99.90;;;;;;5049560;28;20462;-67
2022/08/27 10:39:44;;;;;;;37.10;33.47;;;20.40;99.90;;;;;;5051402;28;20498;-67
2022/08/27 10:42:18;;;;;;;34.57;31.27;;;20.50;99.90;;;;;;5051336;28;20451;-66
2022/08/27 10:44:54;;;;;;;39.20;34.50;;;20.60;99.90;;;;;;5050198;28;20487;-67
2022/08/27 10:47:37;;;;;;;37.00;33.40;;;20.70;99.90;;;;;;5051406;28;20447;-67
2022/08/27 10:50:10;;;;;;;34.13;30.73;;;20.70;99.90;;;;;;5051447;28;20509;-67
2022/08/27 10:52:43;;;;;;;35.03;31.50;;;20.60;99.90;;;;;;5051131;28;20444;-67
2022/08/27 10:55:15;;;;;;;34.37;30.97;;;20.60;99.90;;;;;;5049728;28;20459;-67
2022/08/27 10:58:16;;;;;;;38.00;34.20;;;20.60;99.90;;;;;;5051155;28;20459;-67
2022/08/27 11:00:54;;;;;;;34.97;31.53;;;20.60;99.90;;;;;;5050925;28;21035;-67
2022/08/27 11:03:27;;;;;;;36.13;32.50;;;20.50;99.90;;;;;;5050849;28;20513;-67
2022/08/27 11:05:58;;;;;;;37.60;33.80;;;20.40;99.90;;;;;;5049635;28;20817;-66
2022/08/27 11:08:34;;;;;;;40.00;35.40;;;20.30;99.90;;;;;;5050701;28;20479;-67
2022/08/27 11:11:06;;;;;;;37.77;33.73;;;20.30;99.90;;;;;;5050896;28;20436;-66
2022/08/27 11:13:37;;;;;;;38.50;34.60;;;20.20;99.90;;;;;;5050755;28;20456;-68
2022/08/27 11:16:15;;;;;;;41.87;37.47;;;20.10;99.90;;;;;;5049541;28;20452;-68
2022/08/27 11:18:48;;;;;;;40.27;36.03;;;20.00;99.90;;;;;;5050836;28;20558;-66
2022/08/27 11:21:26;;;;;;;41.83;37.50;;;20.10;99.90;;;;;;5050495;28;20488;-67
2022/08/27 11:23:59;;;;;;;44.93;40.13;;;20.10;99.90;;;;;;5049728;28;20454;-67
2022/08/27 11:26:27;;;;;;;40.50;36.10;;;20.30;99.90;;;;;;5049216;28;20456;-67
2022/08/27 11:29:00;;;;;;;40.23;35.90;;;20.40;99.90;;;;;;5045101;28;20559;-68
2022/08/27 11:31:35;;;;;;;42.53;38.20;;;20.40;99.90;;;;;;5046388;28;20445;-66
2022/08/27 11:34:10;;;;;;;41.53;37.43;;;20.40;99.90;;;;;;5050399;28;20462;-67
2022/08/27 11:37:07;;;;;;;42.67;38.37;;;20.50;99.90;;;;;;5049100;28;20497;-67
2022/08/27 11:39:53;;;;;;;42.53;37.90;;;20.50;99.90;;;;;;5050053;28;20566;-67
2022/08/27 11:42:34;;;;;;;39.90;35.93;;;20.40;99.90;;;;;;5050412;28;20539;-66
2022/08/27 11:45:06;;;;;;;42.93;38.67;;;20.50;99.90;;;;;;5049338;28;20447;-67
2022/08/27 11:47:33;;;;;;;42.03;37.63;;;20.50;99.90;;;;;;5050147;28;20450;-67
2022/08/27 11:50:04;;;;;;;42.60;38.50;;;20.50;99.90;;;;;;5049458;28;20461;-66
2022/08/27 11:52:37;;;;;;;43.40;38.90;;;20.50;99.90;;;;;;5049271;28;20448;-67
2022/08/27 11:55:26;;;;;;;40.70;36.50;;;20.50;99.90;;;;;;5047988;28;20483;-67
2022/08/27 11:58:05;;;;;;;43.60;39.03;;;20.60;99.90;;;;;;5045471;28;20833;-67
2022/08/27 12:00:35;;;;;;;43.63;38.93;;;20.70;99.90;;;;;;5044856;28;20479;-67
2022/08/27 12:03:04;;;;;;;45.63;41.00;;;20.70;99.90;;;;;;5045078;28;20455;-66
2022/08/27 12:05:38;;;;;;;42.20;38.00;;;20.70;99.90;;;;;;5044046;28;20444;-67
2022/08/27 12:08:25;;;;;;;41.63;37.43;;;20.60;99.90;;;;;;5046790;28;20460;-67
2022/08/27 12:11:07;;;;;;;44.33;39.97;;;20.60;99.90;;;;;;5049839;28;20502;-68
2022/08/27 12:13:40;;;;;;;43.07;38.40;;;20.70;99.90;;;;;;5050936;28;20460;-67
2022/08/27 12:16:22;;;;;;;46.03;40.97;;;20.70;99.90;;;;;;5048424;28;20551;-67
2022/08/27 12:19:01;;;;;;;45.13;40.57;;;20.80;99.90;;;;;;5049641;28;20468;-66
2022/08/27 12:21:42;;;;;;;45.93;41.27;;;20.90;99.90;;;;;;5045986;28;20578;-65
2022/08/27 12:24:29;;;;;;;45.83;40.93;;;20.90;99.90;;;;;;5049689;28;20527;-66
2022/08/27 12:26:58;;;;;;;43.67;39.27;;;21.00;99.90;;;;;;5047690;28;20475;-67
2022/08/27 12:29:30;;;;;;;43.63;38.87;;;21.00;99.90;;;;;;5045482;28;20637;-68
2022/08/27 12:32:10;;;;;;;44.23;39.77;;;21.00;99.90;;;;;;5050802;28;20448;-66
2022/08/27 12:34:44;;;;;;;42.33;37.83;;;21.10;99.90;;;;;;5046720;28;20452;-66
2022/08/27 12:37:12;;;;;;;44.50;37.67;;;21.10;99.90;;;;;;5047062;28;20459;-66
2022/08/27 12:39:48;;;;;;;45.20;40.30;;;21.10;99.90;;;;;;5049130;28;20880;-67
2022/08/27 12:42:18;;;;;;;43.27;38.80;;;21.20;99.90;;;;;;5049045;28;20454;-65
2022/08/27 12:44:45;;;;;;;42.17;37.97;;;21.30;99.90;;;;;;5048153;28;20452;-64
2022/08/27 12:47:15;;;;;;;40.37;36.37;;;21.50;99.90;;;;;;5048413;28;20448;-67